Latest Coastal Weather Observations for Red Rocks Point

IDW60701

Issued at 5:32 am WST Friday 19 December 2014 (issued every 10 minutes, with the page automatically refreshed every 10 minutes)

About coastal observations | Map of coastal stations | Coastal observations for WA | Marine services | Other Formats
Station Details ID: 011053 Name: RED ROCKS POINT Lat: -32.20 Lon: 127.53 Height: 3.1 m
Data from the previous 72 hours. | See also: Recent months for locations in Western Australia
Date/Time
WST
Temp

°C
Wind Pressure Rain
since 9am
mm
Weather Cloud Vis
km
Sea
Height
m
Swell
Dir
 
Speed
knots
Gust
knots
hPa Trend Height
m
Period
s
Dir
19/05:30am 17.7 NNE 5 7 1020.6 - 0.0 - - - - - - -
19/05:00am 16.0 N 6 8 1020.3 - 0.0 - - - - - - -
19/04:30am 15.3 N 5 7 1020.0 - 0.0 - - - - - - -
19/04:00am 16.3 N 5 7 1019.6 - 0.0 - - - - - - -
19/03:30am 18.3 E 9 11 1019.6 - 0.0 - - - - - - -
19/03:00am 18.6 ENE 8 12 1019.6 - 0.0 - - - - - - -
19/02:30am 18.6 E 9 11 1019.5 - 0.0 - - - - - - -
19/02:00am 18.7 E 12 15 1019.4 - 0.0 - - - - - - -
19/01:30am 18.8 E 11 13 1019.5 - 0.0 - - - - - - -
19/01:00am 18.5 E 10 13 1019.6 - 0.0 - - - - - - -
19/12:30am 18.5 E 11 13 1019.6 - 0.0 - - - - - - -
19/12:00am 18.6 E 12 14 1019.7 - 0.0 - - - - - - -
 
Date/Time
WST
Temp

°C
Wind Pressure Rain
since 9am
mm
Weather Cloud Vis
km
Sea
Height
m
Swell
Dir
 
Speed
knots
Gust
knots
hPa Trend Height
m
Period
s
Dir
18/11:30pm 18.7 E 13 15 1019.7 - 0.0 - - - - - - -
18/11:00pm 18.7 E 13 16 1020.0 - 0.0 - - - - - - -
18/10:30pm 18.8 ESE 13 16 1020.2 - 0.0 - - - - - - -
18/10:00pm 18.8 ESE 13 16 1020.1 - 0.0 - - - - - - -
18/09:30pm 18.8 ESE 14 16 1020.1 - 0.0 - - - - - - -
18/09:00pm 18.8 ESE 14 16 1019.9 - 0.0 - - - - - - -
18/08:30pm 19.0 SE 13 16 1019.8 - 0.0 - - - - - - -
18/08:00pm 18.9 SE 14 16 1019.6 - 0.0 - - - - - - -
18/07:30pm 19.0 SE 12 14 1019.5 - 0.0 - - - - - - -
18/07:00pm 18.9 SE 12 16 1019.3 - 0.0 - - - - - - -
18/06:30pm 19.1 SE 13 16 1019.1 - 0.0 - - - - - - -
18/06:00pm 19.2 SSE 13 15 1019.0 - 0.0 - - - - - - -
18/05:30pm 19.5 SSE 13 15 1018.7 - 0.0 - - - - - - -
18/05:00pm 20.1 SSE 13 16 1018.4 - 0.0 - - - - - - -
18/04:30pm 20.2 S 14 18 1018.1 - 0.0 - - - - - - -
18/04:00pm 20.8 S 14 17 1018.0 - 0.0 - - - - - - -
18/03:30pm 21.1 S 12 15 1018.1 - 0.0 - - - - - - -
18/03:00pm 21.1 S 12 15 1018.1 - 0.0 - - - - - - -
18/02:30pm 21.8 SSE 12 14 1018.3 - 0.0 - - - - - - -
18/02:00pm 22.1 S 12 14 1018.4 - 0.0 - - - - - - -
18/01:30pm 22.0 S 13 16 1018.3 - 0.0 - - - - - - -
18/01:00pm 22.6 S 13 16 1018.3 - 0.0 - - - - - - -
18/12:30pm 22.8 S 12 16 1018.3 - 0.0 - - - - - - -
18/12:00pm 22.6 S 11 13 1018.3 - 0.0 - - - - - - -
18/11:30am 22.5 S 11 14 1018.3 - 0.0 - - - - - - -
18/11:00am 22.8 S 12 15 1018.3 - 0.0 - - - - - - -
18/10:30am 22.8 S 12 15 1018.2 - 0.0 - - - - - - -
18/10:00am 21.5 S 11 14 1018.0 - 0.0 - - - - - - -
18/09:30am 22.5 S 9 13 1017.9 - 0.0 - - - - - - -
18/09:00am 21.8 S 8 10 1017.7 - 0.0 - - - - - - -
18/08:30am 20.5 S 8 10 1017.6 - 0.0 - - - - - - -
18/08:00am 20.9 S 9 11 1017.5 - 0.0 - - - - - - -
18/07:30am 21.0 S 8 10 1017.3 - 0.0 - - - - - - -
18/07:00am 20.6 S 9 12 1016.9 - 0.0 - - - - - - -
18/06:30am 19.4 S 10 13 1016.5 - 0.0 - - - - - - -
18/06:00am 19.8 S 9 14 1016.1 - 0.0 - - - - - - -
18/05:30am 18.7 S 11 14 1015.8 - 0.0 - - - - - - -
18/05:00am 18.4 S 11 15 1015.2 - 0.0 - - - - - - -
18/04:30am 17.9 S 10 13 1014.8 - 0.0 - - - - - - -
18/04:00am 17.8 S 12 15 1014.5 - 0.0 - - - - - - -
18/03:30am 17.7 S 12 15 1014.3 - 0.0 - - - - - - -
18/03:00am 17.6 SSW 11 15 1014.0 - 0.0 - - - - - - -
18/02:30am 18.2 S 13 17 1013.9 - 0.0 - - - - - - -
18/02:00am 18.0 SSW 10 14 1013.9 - 0.0 - - - - - - -
18/01:30am 18.2 SSW 14 17 1013.6 - 0.0 - - - - - - -
18/01:00am 18.4 S 13 17 1013.4 - 0.0 - - - - - - -
18/12:30am 18.4 S 13 18 1013.3 - 0.0 - - - - - - -
18/12:00am 18.3 S 13 15 1013.3 - 0.0 - - - - - - -
 
Date/Time
WST
Temp

°C
Wind Pressure Rain
since 9am
mm
Weather Cloud Vis
km
Sea
Height
m
Swell
Dir
 
Speed
knots
Gust
knots
hPa Trend Height
m
Period
s
Dir
17/11:30pm 18.5 S 13 16 1013.3 - 0.0 - - - - - - -
17/11:00pm 18.7 S 14 17 1013.1 - 0.0 - - - - - - -
17/10:30pm 18.9 SSE 15 19 1013.1 - 0.0 - - - - - - -
17/10:00pm 18.7 S 15 18 1013.1 - 0.0 - - - - - - -
17/09:30pm 18.9 SSE 15 19 1012.9 - 0.0 - - - - - - -
17/09:00pm 19.0 SSE 16 20 1012.6 - 0.0 - - - - - - -
17/08:30pm 18.9 SSE 17 20 1012.2 - 0.0 - - - - - - -
17/08:00pm 19.2 S 17 21 1011.9 - 0.0 - - - - - - -
17/07:30pm 19.3 SSE 18 21 1011.5 - 0.0 - - - - - - -
17/07:00pm 19.2 S 17 20 1011.2 - 0.0 - - - - - - -
17/06:30pm 19.2 S 17 21 1010.6 - 0.0 - - - - - - -
17/06:00pm 19.5 SSE 18 21 1010.0 - 0.0 - - - - - - -
17/05:30pm 19.7 S 19 21 1009.4 - 0.0 - - - - - - -
17/05:00pm 19.8 SSE 17 20 1008.9 - 0.0 - - - - - - -
17/04:30pm 20.4 SSE 16 19 1008.6 - 0.0 - - - - - - -
17/04:00pm 20.3 SSE 17 20 1008.4 - 0.0 - - - - - - -
17/03:30pm 20.7 SSE 17 20 1008.3 - 0.0 - - - - - - -
17/03:00pm 21.4 SSE 16 19 1008.5 - 0.0 - - - - - - -
17/02:30pm 21.3 SSE 17 20 1008.7 - 0.0 - - - - - - -
17/02:00pm 21.3 SSE 16 20 1008.9 - 0.0 - - - - - - -
17/01:30pm 21.7 SSE 17 21 1008.8 - 0.0 - - - - - - -
17/01:00pm 21.9 SSE 17 19 1008.7 - 0.0 - - - - - - -
17/12:30pm 21.9 SSE 17 19 1008.5 - 0.0 - - - - - - -
17/12:00pm 21.8 SSE 17 21 1008.6 - 0.0 - - - - - - -
17/11:30am 21.7 SSE 17 18 1009.0 - 0.0 - - - - - - -
17/11:00am 21.9 SE 15 18 1009.2 - 0.0 - - - - - - -
17/10:30am 22.0 SE 14 16 1009.4 - 0.0 - - - - - - -
17/10:00am 22.4 SE 13 14 1009.5 - 0.0 - - - - - - -
17/09:30am 22.1 SE 13 15 1009.4 - 0.0 - - - - - - -
17/09:00am 23.0 ESE 11 13 1009.5 - 0.0 - - - - - - -
17/08:30am 22.6 ENE 8 12 1009.9 - 0.0 - - - - - - -
17/08:00am 22.1 ENE 9 16 1009.7 - 0.0 - - - - - - -
17/07:30am 20.9 NNE 9 13 1009.7 - 0.0 - - - - - - -
17/07:00am 19.4 NNE 11 16 1010.0 - 0.0 - - - - - - -
17/06:30am 18.2 NNE 12 20 1010.1 - 0.0 - - - - - - -
17/06:00am 16.5 NNE 11 16 1010.1 - 0.0 - - - - - - -
17/05:30am 14.4 NNE 9 13 1010.3 - 0.0 - - - - - - -
17/05:00am 13.0 N 8 11 1010.4 - 0.0 - - - - - - -
17/04:30am 12.7 N 10 13 1010.3 - 0.0 - - - - - - -
17/04:00am 13.0 NNE 9 13 1010.0 - 0.0 - - - - - - -
17/03:30am 12.6 NNE 9 12 1010.0 - 0.0 - - - - - - -
17/03:00am 12.6 N 9 12 1010.2 - 0.0 - - - - - - -
17/02:30am 12.5 N 9 11 1010.3 - 0.0 - - - - - - -
17/02:00am 12.2 N 8 11 1010.6 - 0.0 - - - - - - -
17/01:30am 12.7 N 8 10 1010.9 - 0.0 - - - - - - -
17/01:00am 13.4 N 8 10 1011.1 - 0.0 - - - - - - -
17/12:30am 17.6 E 13 15 1011.2 - 0.0 - - - - - - -
17/12:00am 17.7 E 13 16 1011.4 - 0.0 - - - - - - -
 
Date/Time
WST
Temp

°C
Wind Pressure Rain
since 9am
mm
Weather Cloud Vis
km
Sea
Height
m
Swell
Dir
 
Speed
knots
Gust
knots
hPa Trend Height
m
Period
s
Dir
16/11:30pm 17.6 E 11 15 1011.6 - 0.0 - - - - - - -
16/11:00pm 17.5 E 12 14 1011.9 - 0.0 - - - - - - -
16/10:30pm 17.6 E 12 15 1012.2 - 0.0 - - - - - - -
16/10:00pm 17.7 ESE 13 16 1012.3 - 0.0 - - - - - - -
16/09:30pm 17.8 ESE 14 17 1012.3 - 0.0 - - - - - - -
16/09:00pm 17.9 SE 13 16 1012.4 - 0.0 - - - - - - -
16/08:30pm 17.9 SE 14 16 1012.5 - 0.0 - - - - - - -
16/08:00pm 17.9 SSE 12 16 1012.5 - 0.0 - - - - - - -
16/07:30pm 18.0 SSE 12 15 1012.5 - 0.0 - - - - - - -
16/07:00pm 17.9 SSE 10 13 1012.6 - 0.0 - - - - - - -
16/06:30pm 18.0 SSE 10 13 1012.6 - 0.0 - - - - - - -
16/06:00pm 18.3 S 10 13 1012.3 - 0.0 - - - - - - -
16/05:30pm 18.9 SSE 11 15 1012.4 - 0.0 - - - - - - -
16/05:00pm 19.4 S 10 13 1012.4 - 0.0 - - - - - - -
16/04:30pm 19.6 S 12 14 1012.2 - 0.0 - - - - - - -
16/04:00pm 20.2 S 11 14 1012.1 - 0.0 - - - - - - -
16/03:30pm 20.3 S 12 15 1012.2 - 0.0 - - - - - - -
16/03:00pm 20.9 S 14 18 1012.4 - 0.0 - - - - - - -
16/02:30pm 21.5 S 14 17 1012.5 - 0.0 - - - - - - -
16/02:00pm 21.7 S 14 17 1012.7 - 0.0 - - - - - - -
16/01:30pm 22.1 SSW 13 16 1012.8 - 0.0 - - - - - - -
16/01:00pm 22.6 SSW 14 18 1012.8 - 0.0 - - - - - - -
16/12:30pm 21.9 S 15 20 1012.8 - 0.0 - - - - - - -
16/12:00pm 22.1 S 15 19 1012.7 - 0.0 - - - - - - -
16/11:30am 22.3 S 15 19 1012.8 - 0.0 - - - - - - -
16/11:00am 22.9 SSW 14 20 1012.9 - 0.0 - - - - - - -
16/10:30am 23.0 SSW 15 20 1012.9 - 0.0 - - - - - - -
16/10:00am 22.9 SSW 15 22 1012.6 - 0.0 - - - - - - -
16/09:30am 22.5 SSW 16 22 1012.4 - 0.0 - - - - - - -
16/09:00am 22.7 SSW 15 20 1012.2 - 0.0 - - - - - - -
16/08:30am 22.3 SSW 15 22 1012.0 - 0.0 - - - - - - -
16/08:00am 21.1 SSW 17 22 1012.1 - 0.0 - - - - - - -
16/07:30am 21.2 SSW 16 23 1011.7 - 0.0 - - - - - - -
16/07:00am 20.8 SSW 16 22 1011.4 - 0.0 - - - - - - -
16/06:30am 20.0 SW 16 25 1011.1 - 0.0 - - - - - - -
16/06:00am 19.4 SW 16 24 1010.7 - 0.0 - - - - - - -

Other Formats:

Comma delimited format used in spreadsheet applications
http://www.bom.gov.au/fwo/IDW60701/IDW60701.94644.axf

JavaScript Object Notation format (JSON) in row-major order
http://www.bom.gov.au/fwo/IDW60701/IDW60701.94644.json